createdAt,value
2022-11-23T00:03:30.485Z,95.43
2022-11-23T00:05:31.941Z,95.47
2022-11-23T00:07:33.090Z,95.5
2022-11-23T00:09:34.378Z,95.85
2022-11-23T00:11:35.596Z,95.72
2022-11-23T00:13:37.226Z,95.53
2022-11-23T00:15:38.477Z,95.25
2022-11-23T00:17:40.021Z,94.89
2022-11-23T00:19:41.126Z,94.84
2022-11-23T00:21:42.378Z,95.33
2022-11-23T00:23:43.886Z,95.2
2022-11-23T00:25:45.388Z,94.26
2022-11-23T00:27:47.097Z,94.19
2022-11-23T00:29:48.585Z,94.44
2022-11-23T00:31:49.672Z,94.63
2022-11-23T00:35:52.784Z,94.32
2022-11-23T00:37:54.179Z,94.16
2022-11-23T00:39:56.184Z,94.12
2022-11-23T00:41:57.216Z,94.6
2022-11-23T00:46:00.239Z,94.21
2022-11-23T00:48:02.161Z,94.46
2022-11-23T00:50:03.884Z,94.41
2022-11-23T00:52:05.549Z,94.53
2022-11-23T00:54:07.103Z,94.56
2022-11-23T00:56:09.151Z,94.57
2022-11-23T00:58:10.545Z,94.51
2022-11-23T01:00:12.264Z,94.09
2022-11-23T01:02:13.374Z,94.04
2022-11-23T01:04:15.230Z,94
2022-11-23T01:06:16.654Z,94.21
2022-11-23T01:08:18.334Z,94.16
2022-11-23T01:10:19.771Z,94.83
2022-11-23T01:12:21.566Z,95.33
2022-11-23T01:14:22.909Z,95.76
2022-11-23T01:18:25.750Z,95.88
2022-11-23T01:20:27.251Z,95.58
2022-11-23T01:22:28.590Z,95.56
2022-11-23T01:24:30.162Z,95.8
2022-11-23T01:26:31.976Z,95.71
2022-11-23T01:28:32.984Z,95.74
2022-11-23T01:30:34.611Z,95.4
2022-11-23T01:32:36.061Z,95.6
2022-11-23T01:34:37.676Z,95.07
2022-11-23T01:36:39.006Z,94.6
2022-11-23T01:38:40.498Z,94.97
2022-11-23T01:40:42.182Z,94.97
2022-11-23T01:42:43.720Z,95.22
2022-11-23T01:44:45.252Z,95.74
2022-11-23T01:46:46.880Z,96.03
2022-11-23T01:48:48.794Z,95.9
2022-11-23T01:50:50.083Z,96.09
2022-11-23T01:52:51.293Z,96.97
2022-11-23T01:54:52.341Z,96.24
2022-11-23T01:56:53.526Z,96.29
2022-11-23T01:58:55.556Z,96.25
2022-11-23T02:00:56.857Z,95.84
2022-11-23T02:02:58.363Z,95.83
2022-11-23T02:04:59.482Z,95.54
2022-11-23T02:07:00.877Z,95.97
2022-11-23T02:11:03.459Z,96.19
2022-11-23T02:13:04.797Z,97.22
2022-11-23T02:15:05.948Z,97.19
2022-11-23T02:17:07.157Z,96.75
2022-11-23T02:19:08.202Z,96.51
2022-11-23T02:21:09.625Z,96.48
2022-11-23T02:23:10.723Z,96.3
2022-11-23T02:25:11.811Z,96.23
2022-11-23T02:27:12.837Z,96.3
2022-11-23T02:29:14.645Z,96.56
2022-11-23T02:31:15.756Z,96.67
2022-11-23T02:33:16.895Z,96.38
2022-11-23T02:35:18.759Z,96.9
2022-11-23T02:37:20.374Z,96.66
2022-11-23T02:39:21.622Z,96.7
2022-11-23T02:41:22.766Z,95.64
2022-11-23T02:43:24.643Z,96.12
2022-11-23T02:45:26.277Z,96.3
2022-11-23T02:49:29.574Z,96.99
2022-11-23T02:51:30.518Z,96.53
2022-11-23T02:53:32.527Z,95.95
2022-11-23T02:55:34.369Z,95.8
2022-11-23T02:59:37.810Z,95.27
2022-11-23T03:01:39.393Z,95.75
2022-11-23T03:03:41.355Z,95.57
2022-11-23T03:05:42.813Z,94.96
2022-11-23T03:07:44.209Z,95.13
2022-11-23T03:09:45.461Z,94.94
2022-11-23T03:11:47.412Z,94.17
2022-11-23T03:13:49.051Z,94.65
2022-11-23T03:15:50.811Z,94.12
2022-11-23T03:17:52.734Z,94.82
2022-11-23T03:19:54.720Z,95.25
2022-11-23T03:21:56.316Z,94.89
2022-11-23T03:23:57.786Z,93.11
2022-11-23T03:25:59.356Z,94.31
2022-11-23T03:28:01.177Z,94.9
2022-11-23T03:32:04.700Z,94.73
2022-11-23T03:34:06.415Z,95.15
2022-11-23T03:36:07.595Z,95.29
2022-11-23T03:38:09.165Z,96.67
2022-11-23T03:42:12.562Z,96.37
2022-11-23T03:44:13.990Z,96.65
2022-11-23T03:46:15.054Z,96.18
2022-11-23T03:48:16.835Z,97.14
2022-11-23T03:50:18.041Z,97.23
2022-11-23T03:52:19.650Z,96.87
2022-11-23T03:54:20.858Z,96.88
2022-11-23T03:56:22.212Z,96.53
2022-11-23T03:58:23.598Z,96.63
2022-11-23T04:00:24.879Z,96.58
2022-11-23T04:02:26.601Z,96.73
2022-11-23T04:04:28.348Z,96.8
2022-11-23T04:06:30.240Z,96.85
2022-11-23T04:08:32.202Z,96.96
2022-11-23T04:10:33.404Z,97.04
2022-11-23T04:12:34.697Z,97.05
2022-11-23T04:14:36.174Z,96.71
2022-11-23T04:16:38.201Z,96.73
2022-11-23T04:18:39.488Z,96.78
2022-11-23T04:20:41.487Z,96.98
2022-11-23T04:24:45.494Z,96.83
2022-11-23T04:26:47.319Z,96.85
2022-11-23T04:28:48.808Z,96.67
2022-11-23T04:30:50.926Z,95.86
2022-11-23T04:32:52.011Z,95.95
2022-11-23T04:34:53.541Z,96.18
2022-11-23T04:36:55.125Z,96.23
2022-11-23T04:38:56.970Z,96.35
2022-11-23T04:40:58.047Z,96.35
2022-11-23T04:43:01.703Z,95.97
2022-11-23T04:45:01.365Z,95.67
2022-11-23T04:47:02.685Z,95.79
2022-11-23T04:49:47.847Z,96.61
2022-11-23T04:51:49.720Z,96.73
2022-11-23T04:53:51.137Z,96.72
2022-11-23T04:55:52.714Z,96.84
2022-11-23T04:57:54.468Z,97.03
2022-11-23T05:01:57.259Z,96.96
2022-11-23T05:03:59.291Z,96.85
2022-11-23T05:06:01.083Z,96.77
2022-11-23T05:08:02.568Z,96.82
2022-11-23T05:10:04.597Z,96.69
2022-11-23T05:12:06.054Z,96.57
2022-11-23T05:14:07.510Z,96.52
2022-11-23T05:16:08.706Z,96.42
2022-11-23T05:18:10.412Z,96.42
2022-11-23T05:20:11.822Z,96.49
2022-11-23T05:22:12.858Z,96.5
2022-11-23T05:24:14.261Z,96.48
2022-11-23T05:26:16.052Z,96.51
2022-11-23T05:28:38.881Z,96.43
2022-11-23T05:30:19.112Z,96.44
2022-11-23T05:32:20.443Z,96.42
2022-11-23T05:34:21.772Z,96.39
2022-11-23T05:36:22.973Z,96.43
2022-11-23T05:38:24.507Z,96.36
2022-11-23T05:40:25.990Z,96.34
2022-11-23T05:44:29.706Z,96.36
2022-11-23T05:46:30.835Z,96.08
2022-11-23T05:48:32.687Z,95.27
2022-11-23T05:50:33.925Z,95.98
2022-11-23T05:52:35.596Z,96.52
2022-11-23T05:54:37.116Z,96.32
2022-11-23T05:56:40.377Z,95.82
2022-11-23T05:58:40.228Z,96.08
2022-11-23T06:00:41.938Z,95.56
2022-11-23T06:02:43.846Z,95.72
2022-11-23T06:04:45.471Z,95.6
2022-11-23T06:06:47.045Z,94.99
2022-11-23T06:08:49.268Z,95.04
2022-11-23T06:10:50.510Z,94.35
2022-11-23T06:12:52.060Z,93.96
2022-11-23T06:14:53.982Z,92.98
2022-11-23T06:16:55.640Z,93.33
2022-11-23T06:18:57.632Z,93.78
2022-11-23T06:20:58.695Z,93.91
2022-11-23T06:23:00.480Z,93.89
2022-11-23T06:27:02.821Z,94.5
2022-11-23T06:29:04.117Z,94.43
2022-11-23T06:31:06.082Z,94.9
2022-11-23T06:33:08.081Z,94.33
2022-11-23T06:35:09.453Z,94.01
2022-11-23T06:37:10.990Z,93.26
2022-11-23T06:39:12.009Z,94.33
2022-11-23T06:41:13.172Z,95.19
2022-11-23T06:43:14.583Z,95.2
2022-11-23T06:45:15.602Z,95.1
2022-11-23T06:47:19.087Z,95.19
2022-11-23T06:49:19.280Z,95.25
2022-11-23T06:51:20.601Z,95.38
2022-11-23T06:53:22.371Z,95.56
2022-11-23T06:55:23.580Z,95.59
2022-11-23T06:59:26.163Z,95.98
2022-11-23T07:01:27.300Z,95.46
2022-11-23T07:03:29.274Z,94.95
2022-11-23T07:05:31.031Z,94.96
2022-11-23T07:09:34.660Z,95
2022-11-23T07:11:35.789Z,94.21
2022-11-23T07:13:37.255Z,94.11
2022-11-23T07:15:38.722Z,94.05
2022-11-23T07:17:39.920Z,93.56
2022-11-23T07:19:41.523Z,92.93
2022-11-23T07:21:42.646Z,93.32
2022-11-23T07:23:44.194Z,93.3
2022-11-23T07:25:45.286Z,93.67
2022-11-23T07:27:47.133Z,93.58
2022-11-23T07:29:48.824Z,93.4
2022-11-23T07:31:50.563Z,93.76
2022-11-23T07:33:52.049Z,94.15
2022-11-23T07:35:53.526Z,94.77
2022-11-23T07:37:55.238Z,94.84
2022-11-23T07:39:58.056Z,93.27
2022-11-23T07:42:24.786Z,93.59
2022-11-23T07:43:59.638Z,93.73
2022-11-23T07:46:00.773Z,93.45
2022-11-23T07:48:02.038Z,93.54
2022-11-23T07:50:03.912Z,94.13
2022-11-23T07:52:05.461Z,93.72
2022-11-23T07:54:06.600Z,93.66
2022-11-23T07:58:09.802Z,92.38
2022-11-23T08:00:11.406Z,93.29
2022-11-23T08:02:13.023Z,93.25
2022-11-23T08:04:14.010Z,93.48
2022-11-23T08:08:17.511Z,93.63
2022-11-23T08:10:18.503Z,93.93
2022-11-23T08:12:20.150Z,94.09
2022-11-23T08:14:21.205Z,94.29
2022-11-23T08:16:22.213Z,94.32
2022-11-23T08:18:23.916Z,94.55
2022-11-23T08:20:25.792Z,94.44
2022-11-23T08:22:26.926Z,93.87
2022-11-23T08:24:28.280Z,93.8
2022-11-23T08:26:30.248Z,94.07
2022-11-23T08:28:32.126Z,93.67
2022-11-23T08:30:33.683Z,93.79
2022-11-23T08:32:35.361Z,93.71
2022-11-23T08:34:36.553Z,93.06
2022-11-23T08:36:38.175Z,92.77
2022-11-23T08:38:40.121Z,92.65
2022-11-23T08:40:41.208Z,93.06
2022-11-23T08:42:42.967Z,92.69
2022-11-23T08:44:44.186Z,92.8
2022-11-23T08:46:45.534Z,92.85
2022-11-23T08:50:48.981Z,91.66
2022-11-23T08:52:50.475Z,91.55
2022-11-23T08:54:51.929Z,91.93
2022-11-23T08:56:53.630Z,91.36
2022-11-23T08:58:54.991Z,90.6
2022-11-23T09:00:56.839Z,90.25
2022-11-23T09:02:58.508Z,90.53
2022-11-23T09:04:59.933Z,90.37
2022-11-23T09:07:01.655Z,88.28
2022-11-23T09:09:03.225Z,89.14
2022-11-23T09:11:04.356Z,90.02
2022-11-23T09:13:06.277Z,89.37
2022-11-23T09:15:07.547Z,89
2022-11-23T09:17:08.672Z,88.5
2022-11-23T09:19:09.985Z,87.02
2022-11-23T09:21:10.946Z,87.36
2022-11-23T09:23:14.190Z,88.58
2022-11-23T09:25:13.777Z,88.92
2022-11-23T09:27:14.925Z,87.22
2022-11-23T09:29:16.420Z,84.35
2022-11-23T09:33:19.537Z,85.46
2022-11-23T09:35:21.852Z,81.51
2022-11-23T09:37:22.714Z,82.34
2022-11-23T09:39:24.346Z,83.63
2022-11-23T09:41:25.908Z,78.07
2022-11-23T09:43:27.361Z,76.91
2022-11-23T09:45:28.587Z,78.09
2022-11-23T09:47:30.184Z,79.83
2022-11-23T09:49:31.745Z,77.34
2022-11-23T09:51:32.737Z,79.3
2022-11-23T09:53:33.899Z,78.7
2022-11-23T09:55:35.460Z,79.19
2022-11-23T09:57:36.335Z,76.29
2022-11-23T09:59:37.411Z,77.86
2022-11-23T10:01:39.178Z,76.03
2022-11-23T10:05:42.445Z,77.54
2022-11-23T10:07:44.016Z,76.86
2022-11-23T10:09:44.889Z,75.14
2022-11-23T10:11:45.846Z,74.26
2022-11-23T10:15:48.005Z,75.78
2022-11-23T10:17:49.567Z,73.84
2022-11-23T10:19:51.280Z,76.16
2022-11-23T10:21:52.438Z,74.11
2022-11-23T10:23:54.513Z,72.55
2022-11-23T10:25:55.589Z,71.86
2022-11-23T10:27:56.952Z,72.45
2022-11-23T10:29:58.122Z,72.4
2022-11-23T10:31:59.416Z,73.62
2022-11-23T10:34:01.162Z,73.62
2022-11-23T10:36:02.702Z,73.6
2022-11-23T10:38:04.337Z,74.66
2022-11-23T10:40:05.804Z,74.27
2022-11-23T10:42:08.267Z,73.06
2022-11-23T10:44:10.056Z,72.31
2022-11-23T10:46:11.463Z,73.58
2022-11-23T10:48:13.193Z,74.26
2022-11-23T10:50:14.521Z,72.38
2022-11-23T10:52:15.769Z,74.11
2022-11-23T10:54:17.585Z,72.29
2022-11-23T10:56:18.392Z,71.22
2022-11-23T10:58:19.975Z,71.82
2022-11-23T11:00:23.665Z,72
2022-11-23T11:04:24.429Z,67.25
2022-11-23T11:06:26.077Z,70.44
2022-11-23T11:08:28.336Z,68.06
2022-11-23T11:10:29.868Z,69.55
2022-11-23T11:12:31.316Z,69.12
2022-11-23T11:14:42.659Z,70.74
2022-11-23T11:16:33.349Z,71.36
2022-11-23T11:18:34.188Z,68.99
2022-11-23T11:20:35.375Z,71.18
2022-11-23T11:22:36.687Z,70.88
2022-11-23T11:24:37.682Z,69.56
2022-11-23T11:26:39.036Z,71.3
2022-11-23T11:28:40.739Z,70.03
2022-11-23T11:30:41.727Z,70.04
2022-11-23T11:32:43.408Z,68.85
2022-11-23T11:35:28.712Z,71.29
2022-11-23T11:37:30.095Z,69.84
2022-11-23T11:39:31.757Z,65.75
2022-11-23T11:41:32.579Z,65.96
2022-11-23T11:43:39.388Z,66.34
2022-11-23T11:45:34.473Z,66.96
2022-11-23T11:47:35.647Z,67.32
2022-11-23T11:51:38.183Z,66.26
2022-11-23T11:53:40.765Z,65.3
2022-11-23T11:55:42.552Z,65.7
2022-11-23T11:57:43.537Z,66.4
2022-11-23T11:59:45.769Z,67.62
2022-11-23T12:01:46.813Z,65.73
2022-11-23T12:03:48.635Z,67.29
2022-11-23T12:05:49.925Z,64.53
2022-11-23T12:07:51.163Z,66.43
2022-11-23T12:09:51.947Z,65.63
2022-11-23T12:11:53.279Z,67
2022-11-23T12:13:54.917Z,65.79
2022-11-23T12:15:55.888Z,63.63
2022-11-23T12:17:57.426Z,65.77
2022-11-23T12:19:59.136Z,64.69
2022-11-23T12:24:01.939Z,59.65
2022-11-23T12:26:03.764Z,62.76
2022-11-23T12:28:05.573Z,60.81
2022-11-23T12:30:06.551Z,62.26
2022-11-23T12:34:08.865Z,60.57
2022-11-23T12:36:09.833Z,59.27
2022-11-23T12:40:12.111Z,58.8
2022-11-23T12:42:13.049Z,59.8
2022-11-23T12:44:14.734Z,57.7
2022-11-23T12:46:16.119Z,56.51
2022-11-23T12:50:18.906Z,58.89
2022-11-23T12:52:20.549Z,58.65
2022-11-23T12:54:21.960Z,57.15
2022-11-23T12:56:23.281Z,55.02
2022-11-23T12:58:25.525Z,55.72
2022-11-23T13:00:27.043Z,56.36
2022-11-23T13:02:28.539Z,56.35
2022-11-23T13:04:30.036Z,54.25
2022-11-23T13:06:31.276Z,55.08
2022-11-23T13:08:32.208Z,52.44
2022-11-23T13:10:33.352Z,51.6
2022-11-23T13:12:34.750Z,52.57
2022-11-23T13:14:35.937Z,51.92
2022-11-23T13:16:37.499Z,50.27
2022-11-23T13:18:38.872Z,51.06
2022-11-23T13:20:40.331Z,50.93
2022-11-23T13:22:41.674Z,52.91
2022-11-23T13:24:43.478Z,51.97
2022-11-23T13:26:44.769Z,53.61
2022-11-23T13:28:45.727Z,52.54
2022-11-23T13:32:47.832Z,53.1
2022-11-23T13:34:48.724Z,54.11
2022-11-23T13:37:11.457Z,54.7
2022-11-23T13:38:51.227Z,55.48
2022-11-23T13:40:52.377Z,54.38
2022-11-23T13:42:53.439Z,54.9
2022-11-23T13:44:55.239Z,54.19
2022-11-23T13:46:56.815Z,55.72
2022-11-23T13:48:58.580Z,57.27
2022-11-23T13:50:59.575Z,54.3
2022-11-23T13:53:00.902Z,56.67
2022-11-23T13:55:07.328Z,54.09
2022-11-23T13:57:03.563Z,55.2
2022-11-23T13:59:04.819Z,54.95
2022-11-23T14:01:05.900Z,54.22
2022-11-23T14:05:08.952Z,51.41
2022-11-23T14:07:09.950Z,52.51
2022-11-23T14:09:11.213Z,52.84
2022-11-23T14:11:13.052Z,52.15
2022-11-23T14:15:15.709Z,53.3
2022-11-23T14:17:16.969Z,53.72
2022-11-23T14:19:18.524Z,51.8
2022-11-23T14:21:19.522Z,52.06
2022-11-23T14:23:21.220Z,52.99
2022-11-23T14:25:22.195Z,55.23
2022-11-23T14:27:46.048Z,56.45
2022-11-23T14:29:24.053Z,53.71
2022-11-23T14:31:25.195Z,53.57
2022-11-23T14:33:26.581Z,53.68
2022-11-23T14:35:28.214Z,54.13
2022-11-23T14:37:30.104Z,56.41
2022-11-23T14:39:31.099Z,58.14
2022-11-23T14:41:32.842Z,55.78
2022-11-23T14:43:34.485Z,56.59
2022-11-23T14:45:35.580Z,57.4
2022-11-23T14:47:37.006Z,56.71
2022-11-23T14:49:38.371Z,56.01
2022-11-23T14:51:40.261Z,62.21
2022-11-23T14:53:46.616Z,58.31
2022-11-23T14:55:43.138Z,58.84
2022-11-23T14:57:44.942Z,58.1
2022-11-23T14:59:46.721Z,59.46
2022-11-23T15:03:50.877Z,60.33
2022-11-23T15:05:51.114Z,60.9
2022-11-23T15:07:52.846Z,60.64
2022-11-23T15:09:54.180Z,62.3
2022-11-23T15:13:56.760Z,62.79
2022-11-23T15:15:57.954Z,63.99
2022-11-23T15:17:59.490Z,63.08
2022-11-23T15:20:00.971Z,60.96
2022-11-23T15:22:02.355Z,61.51
2022-11-23T15:24:03.356Z,61.02
2022-11-23T15:26:04.409Z,61.53
2022-11-23T15:28:06.229Z,61.23
2022-11-23T15:30:07.332Z,61.65
2022-11-23T15:32:29.708Z,61.39
2022-11-23T15:34:10.995Z,63.27
2022-11-23T15:36:12.176Z,59.19
2022-11-23T15:38:15.780Z,61.7
2022-11-23T15:40:14.425Z,62.06
2022-11-23T15:42:15.843Z,63.16
2022-11-23T15:44:17.521Z,65.41
2022-11-23T15:46:18.701Z,66.49
2022-11-23T15:48:19.874Z,65.63
2022-11-23T15:50:21.798Z,71.91
2022-11-23T15:52:23.084Z,64.54
2022-11-23T15:56:25.146Z,67.37
2022-11-23T15:58:26.969Z,67.04
2022-11-23T16:00:28.937Z,65.92
2022-11-23T16:02:30.923Z,66.69
2022-11-23T16:04:32.637Z,67.65
2022-11-23T16:06:34.037Z,68.07
2022-11-23T16:08:35.198Z,73.54
2022-11-23T16:10:36.403Z,72.21
2022-11-23T16:12:38.193Z,74.02
2022-11-23T16:14:39.854Z,76.29
2022-11-23T16:16:45.385Z,77.66
2022-11-23T16:18:42.964Z,77.82
2022-11-23T16:20:44.166Z,78.21
2022-11-23T16:22:46.075Z,78.29
2022-11-23T16:24:47.091Z,78.17
2022-11-23T16:26:48.290Z,78.79
2022-11-23T16:28:49.486Z,79.44
2022-11-23T16:30:51.432Z,79.71
2022-11-23T16:32:52.515Z,79.83
2022-11-23T16:34:53.996Z,80.02
2022-11-23T16:38:59.711Z,82.12
2022-11-23T16:40:58.310Z,82.35
2022-11-23T16:42:59.534Z,81.43
2022-11-23T16:45:02.397Z,80.81
2022-11-23T16:47:02.368Z,81.19
2022-11-23T16:49:03.863Z,80.96
2022-11-23T16:51:04.951Z,80.77
2022-11-23T16:53:06.852Z,80.43
2022-11-23T16:55:08.812Z,81.82
2022-11-23T16:57:10.442Z,80.9
2022-11-23T16:59:12.339Z,79.06
2022-11-23T17:01:14.268Z,78.72
2022-11-23T17:03:15.788Z,80.21
2022-11-23T17:05:17.345Z,81.59
2022-11-23T17:07:19.350Z,82.45
2022-11-23T17:11:21.506Z,83.08
2022-11-23T17:13:23.165Z,82.34
2022-11-23T17:15:25.187Z,82.25
2022-11-23T17:17:26.733Z,81.95
2022-11-23T17:21:29.641Z,83.35
2022-11-23T17:23:31.443Z,83.55
2022-11-23T17:25:33.024Z,83.61
2022-11-23T17:27:34.836Z,79.94
2022-11-23T17:29:40.474Z,81.94
2022-11-23T17:31:37.551Z,82.9
2022-11-23T17:33:38.592Z,83.41
2022-11-23T17:35:39.619Z,83.52
2022-11-23T17:37:41.378Z,84.18
2022-11-23T17:39:43.105Z,84.1
2022-11-23T17:41:45.033Z,81.49
2022-11-23T17:43:46.433Z,81.22
2022-11-23T17:45:48.032Z,79.74
2022-11-23T17:47:49.088Z,79.93
2022-11-23T17:49:50.525Z,81.89
2022-11-23T17:53:53.578Z,83.59
2022-11-23T17:55:55.553Z,83.97
2022-11-23T17:57:57.300Z,82.21
2022-11-23T18:00:01.933Z,79.73
2022-11-23T18:04:02.011Z,80.32
2022-11-23T18:06:03.484Z,82.23
2022-11-23T18:08:04.661Z,82.49
2022-11-23T18:10:06.253Z,82.19
2022-11-23T18:12:07.938Z,82.87
2022-11-23T18:14:09.560Z,83.1
2022-11-23T18:16:10.754Z,83.19
2022-11-23T18:18:12.650Z,83.07
2022-11-23T18:18:56.518Z,82.59
2022-11-23T18:20:57.855Z,81.99
2022-11-23T18:22:58.966Z,82.01
2022-11-23T18:25:00.875Z,82.01
2022-11-23T18:27:02.786Z,82.38
2022-11-23T18:29:03.963Z,81.26
2022-11-23T18:31:05.071Z,80.79
2022-11-23T18:33:06.152Z,81.4
2022-11-23T18:35:07.531Z,81.91
2022-11-23T18:37:09.243Z,81.9
2022-11-23T18:39:10.459Z,82.69
2022-11-23T18:41:12.196Z,82.41
2022-11-23T18:43:13.765Z,82.16
2022-11-23T18:47:16.903Z,82.51
2022-11-23T18:49:18.737Z,80.68
2022-11-23T18:51:19.708Z,80.11
2022-11-23T18:53:20.901Z,81.18
2022-11-23T18:57:23.310Z,83.12
2022-11-23T19:01:25.697Z,81.56
2022-11-23T19:03:27.358Z,82.25
2022-11-23T19:05:29.072Z,82.18
2022-11-23T19:07:30.168Z,82.56
2022-11-23T19:09:31.411Z,83.06
2022-11-23T19:11:32.175Z,83.26
2022-11-23T19:13:33.572Z,83.52
2022-11-23T19:15:34.913Z,84.17
2022-11-23T19:17:36.252Z,84.2
2022-11-23T19:19:37.203Z,85.2
2022-11-23T19:21:38.283Z,85.57
2022-11-23T19:23:39.380Z,86.13
2022-11-23T19:25:40.641Z,85.87
2022-11-23T19:29:42.908Z,87.02
2022-11-23T19:31:44.197Z,87.53
2022-11-23T19:33:46.013Z,87.26
2022-11-23T19:35:47.353Z,87.55
2022-11-23T19:39:51.015Z,88.55
2022-11-23T19:41:52.752Z,88.9
2022-11-23T19:43:54.567Z,89.15
2022-11-23T19:45:56.037Z,89.45
2022-11-23T19:47:57.695Z,89.75
2022-11-23T19:49:59.534Z,89.7
2022-11-23T19:52:00.676Z,89.64
2022-11-23T19:54:01.867Z,89.7
2022-11-23T19:56:03.762Z,89.76
2022-11-23T19:58:04.907Z,90.06
2022-11-23T20:00:06.002Z,89.77
2022-11-23T20:02:07.499Z,89.82
2022-11-23T20:04:09.954Z,90.12
2022-11-23T20:06:11.037Z,90.07
2022-11-23T20:08:12.155Z,90.13
2022-11-23T20:12:15.409Z,90.24
2022-11-23T20:14:16.491Z,90.58
2022-11-23T20:16:18.420Z,90.93
2022-11-23T20:18:19.956Z,89.79
2022-11-23T20:20:21.239Z,90.18
2022-11-23T20:22:22.590Z,90.25
2022-11-23T20:24:24.169Z,90.68
2022-11-23T20:26:26.045Z,90.94
2022-11-23T20:28:27.235Z,91.12
2022-11-23T20:30:28.869Z,91.32
2022-11-23T20:32:30.122Z,91.31
2022-11-23T20:34:32.099Z,90.94
2022-11-23T20:36:33.057Z,91.5
2022-11-23T20:38:34.144Z,91.05
2022-11-23T20:40:35.741Z,90.93
2022-11-23T20:44:38.428Z,90.82
2022-11-23T20:47:02.129Z,91.08
2022-11-23T20:48:41.547Z,91.39
2022-11-23T20:50:42.946Z,91.63
2022-11-23T20:54:45.874Z,92.06
2022-11-23T20:56:47.478Z,92.26
2022-11-23T20:58:48.808Z,92.69
2022-11-23T21:00:51.596Z,93.08
2022-11-23T21:02:52.293Z,93.49
2022-11-23T21:04:53.185Z,93.75
2022-11-23T21:06:54.841Z,94.01
2022-11-23T21:08:56.542Z,94.22
2022-11-23T21:10:58.029Z,94.33
2022-11-23T21:12:59.435Z,94.42
2022-11-23T21:15:01.043Z,94.56
2022-11-23T21:17:02.354Z,94.7
2022-11-23T21:19:03.307Z,94.88
2022-11-23T21:21:04.828Z,94.94
2022-11-23T21:23:06.569Z,95.02
2022-11-23T21:25:08.310Z,95.11
2022-11-23T21:27:09.423Z,95.13
2022-11-23T21:29:11.543Z,95.16
2022-11-23T21:31:12.754Z,95.15
2022-11-23T21:33:14.480Z,95.17
2022-11-23T21:35:16.374Z,95.26
2022-11-23T21:37:17.500Z,95.36
2022-11-23T21:39:18.631Z,95.45
2022-11-23T21:43:21.849Z,95.49
2022-11-23T21:45:23.270Z,95.51
2022-11-23T21:47:25.011Z,95.54
2022-11-23T21:49:26.798Z,95.47
2022-11-23T21:53:29.486Z,95.5
2022-11-23T21:55:30.991Z,95.51
2022-11-23T21:57:32.391Z,95.51
2022-11-23T21:59:33.903Z,95.51
2022-11-23T22:01:35.862Z,95.47
2022-11-23T22:03:36.877Z,95.47
2022-11-23T22:05:38.838Z,95.45
2022-11-23T22:07:40.148Z,95.34
2022-11-23T22:09:41.089Z,95.28
2022-11-23T22:11:42.247Z,95.23
2022-11-23T22:13:43.661Z,95.17
2022-11-23T22:15:45.349Z,95.13
2022-11-23T22:17:47.003Z,95.14
2022-11-23T22:19:48.900Z,95.15
2022-11-23T22:21:50.553Z,95.07
2022-11-23T22:23:51.798Z,95.05
2022-11-23T22:25:53.183Z,95.14
2022-11-23T22:27:54.190Z,95.21
2022-11-23T22:29:55.240Z,95.23
2022-11-23T22:31:56.414Z,95.25
2022-11-23T22:35:59.217Z,95.08
2022-11-23T22:38:00.603Z,95.12
2022-11-23T22:40:01.768Z,95.03
2022-11-23T22:42:03.462Z,95.03
2022-11-23T22:44:05.152Z,95.06
2022-11-23T22:46:06.333Z,95.03
2022-11-23T22:48:07.441Z,94.78
2022-11-23T22:50:08.819Z,94.78
2022-11-23T22:52:10.090Z,94.84
2022-11-23T22:54:11.505Z,94.83
2022-11-23T22:56:12.854Z,94.86
2022-11-23T22:58:14.288Z,94.55
2022-11-23T23:00:15.260Z,94.72
2022-11-23T23:02:17.012Z,94.43
2022-11-23T23:04:18.833Z,94.33
2022-11-23T23:08:21.560Z,94.23
2022-11-23T23:10:23.316Z,94.06
2022-11-23T23:12:25.104Z,94.03
2022-11-23T23:14:26.435Z,94.17
2022-11-23T23:18:28.914Z,94.23
2022-11-23T23:20:29.966Z,94.22
2022-11-23T23:22:31.124Z,94.19
2022-11-23T23:24:33.160Z,93.92
2022-11-23T23:26:34.179Z,94.13
2022-11-23T23:28:36.138Z,94.25
2022-11-23T23:30:38.063Z,94.13
2022-11-23T23:32:39.972Z,94.06
2022-11-23T23:34:41.284Z,93.95
2022-11-23T23:36:43.026Z,93.99
2022-11-23T23:38:44.707Z,94.09
2022-11-23T23:40:46.366Z,93.73
2022-11-23T23:42:48.094Z,93.86
2022-11-23T23:44:49.262Z,93.84
2022-11-23T23:46:51.011Z,93.79
2022-11-23T23:50:53.951Z,93.47
2022-11-23T23:52:55.231Z,93.58
2022-11-23T23:54:56.461Z,93.82
2022-11-23T23:56:57.490Z,93.99
